sensor_id;sensor_type;location;lat;lon;timestamp;pressure;altitude;pressure_sealevel;temperature;humidity
16694;BME280;39538;52.196;9.892;2022-12-11T00:01:47;100112.91;;;-1.35;99.33
16694;BME280;39538;52.196;9.892;2022-12-11T00:04:14;100116.13;;;-1.27;99.38
16694;BME280;39538;52.196;9.892;2022-12-11T00:06:40;100108.19;;;-1.22;100.00
16694;BME280;39538;52.196;9.892;2022-12-11T00:09:08;100096.94;;;-1.22;99.54
16694;BME280;39538;52.196;9.892;2022-12-11T00:11:35;100103.78;;;-1.20;99.92
16694;BME280;39538;52.196;9.892;2022-12-11T00:14:01;100101.19;;;-1.20;99.99
16694;BME280;39538;52.196;9.892;2022-12-11T00:16:28;100092.63;;;-1.23;99.95
16694;BME280;39538;52.196;9.892;2022-12-11T00:18:56;100092.91;;;-1.34;100.00
16694;BME280;39538;52.196;9.892;2022-12-11T00:21:22;100089.53;;;-1.38;99.93
16694;BME280;39538;52.196;9.892;2022-12-11T00:23:49;100080.78;;;-1.35;100.00
16694;BME280;39538;52.196;9.892;2022-12-11T00:26:15;100082.09;;;-1.50;100.00
16694;BME280;39538;52.196;9.892;2022-12-11T00:28:42;100091.66;;;-1.51;100.00
16694;BME280;39538;52.196;9.892;2022-12-11T00:31:12;100080.41;;;-1.53;100.00
16694;BME280;39538;52.196;9.892;2022-12-11T00:33:39;100078.78;;;-1.57;100.00
16694;BME280;39538;52.196;9.892;2022-12-11T00:36:11;100083.75;;;-1.48;100.00
16694;BME280;39538;52.196;9.892;2022-12-11T00:38:38;100083.25;;;-1.60;100.00
16694;BME280;39538;52.196;9.892;2022-12-11T00:41:05;100092.75;;;-1.59;99.90
16694;BME280;39538;52.196;9.892;2022-12-11T00:43:31;100087.78;;;-1.68;99.58
16694;BME280;39538;52.196;9.892;2022-12-11T00:45:58;100085.75;;;-1.57;99.70
16694;BME280;39538;52.196;9.892;2022-12-11T00:48:24;100085.03;;;-1.62;99.62
16694;BME280;39538;52.196;9.892;2022-12-11T00:50:51;100082.22;;;-1.55;99.64
16694;BME280;39538;52.196;9.892;2022-12-11T00:53:19;100085.63;;;-1.53;99.72
16694;BME280;39538;52.196;9.892;2022-12-11T00:55:45;100089.66;;;-1.42;99.66
16694;BME280;39538;52.196;9.892;2022-12-11T00:58:13;100091.63;;;-1.49;99.25
16694;BME280;39538;52.196;9.892;2022-12-11T01:00:40;100096.69;;;-1.44;99.14
16694;BME280;39538;52.196;9.892;2022-12-11T01:03:08;100092.25;;;-1.41;99.11
16694;BME280;39538;52.196;9.892;2022-12-11T01:05:35;100089.50;;;-1.36;99.33
16694;BME280;39538;52.196;9.892;2022-12-11T01:08:02;100090.34;;;-1.36;99.32
16694;BME280;39538;52.196;9.892;2022-12-11T01:10:31;100100.69;;;-1.33;99.10
16694;BME280;39538;52.196;9.892;2022-12-11T01:12:58;100098.88;;;-1.31;99.13
16694;BME280;39538;52.196;9.892;2022-12-11T01:15:27;100101.56;;;-1.32;99.23
16694;BME280;39538;52.196;9.892;2022-12-11T01:17:54;100103.22;;;-1.30;98.94
16694;BME280;39538;52.196;9.892;2022-12-11T01:20:23;100105.81;;;-1.30;99.00
16694;BME280;39538;52.196;9.892;2022-12-11T01:22:51;100095.41;;;-1.30;98.93
16694;BME280;39538;52.196;9.892;2022-12-11T01:25:18;100100.56;;;-1.28;99.03
16694;BME280;39538;52.196;9.892;2022-12-11T01:27:48;100107.47;;;-1.27;98.81
16694;BME280;39538;52.196;9.892;2022-12-11T01:30:15;100108.41;;;-1.30;98.63
16694;BME280;39538;52.196;9.892;2022-12-11T01:32:41;100098.00;;;-1.30;98.80
16694;BME280;39538;52.196;9.892;2022-12-11T01:35:10;100099.78;;;-1.32;98.28
16694;BME280;39538;52.196;9.892;2022-12-11T01:37:37;100088.53;;;-1.32;98.10
16694;BME280;39538;52.196;9.892;2022-12-11T01:40:05;100104.09;;;-1.31;97.95
16694;BME280;39538;52.196;9.892;2022-12-11T01:42:32;100100.59;;;-1.30;98.09
16694;BME280;39538;52.196;9.892;2022-12-11T01:45:29;100101.44;;;-1.29;98.04
16694;BME280;39538;52.196;9.892;2022-12-11T01:48:00;100102.38;;;-1.30;98.04
16694;BME280;39538;52.196;9.892;2022-12-11T01:50:27;100095.44;;;-1.31;98.18
16694;BME280;39538;52.196;9.892;2022-12-11T01:52:56;100093.63;;;-1.29;98.00
16694;BME280;39538;52.196;9.892;2022-12-11T01:55:23;100097.16;;;-1.30;98.05
16694;BME280;39538;52.196;9.892;2022-12-11T01:57:50;100099.69;;;-1.29;98.24
16694;BME280;39538;52.196;9.892;2022-12-11T02:00:18;100103.97;;;-1.26;98.40
16694;BME280;39538;52.196;9.892;2022-12-11T02:02:46;100094.81;;;-1.39;98.32
16694;BME280;39538;52.196;9.892;2022-12-11T02:05:13;100090.34;;;-1.36;98.31
16694;BME280;39538;52.196;9.892;2022-12-11T02:07:43;100098.22;;;-1.37;98.24
16694;BME280;39538;52.196;9.892;2022-12-11T02:10:11;100085.22;;;-1.37;98.20
16694;BME280;39538;52.196;9.892;2022-12-11T02:12:45;100104.16;;;-1.32;98.11
16694;BME280;39538;52.196;9.892;2022-12-11T02:15:18;100095.41;;;-1.30;97.87
16694;BME280;39538;52.196;9.892;2022-12-11T02:17:50;100099.75;;;-1.30;97.86
16694;BME280;39538;52.196;9.892;2022-12-11T02:20:22;100103.22;;;-1.30;97.68
16694;BME280;39538;52.196;9.892;2022-12-11T02:23:01;100101.47;;;-1.31;97.78
16694;BME280;39538;52.196;9.892;2022-12-11T02:25:36;100092.88;;;-1.33;97.75
16694;BME280;39538;52.196;9.892;2022-12-11T02:28:17;100098.16;;;-1.36;97.64
16694;BME280;39538;52.196;9.892;2022-12-11T02:30:46;100098.09;;;-1.33;97.69
16694;BME280;39538;52.196;9.892;2022-12-11T02:33:15;100101.47;;;-1.31;97.84
16694;BME280;39538;52.196;9.892;2022-12-11T02:35:43;100097.09;;;-1.29;97.92
16694;BME280;39538;52.196;9.892;2022-12-11T02:38:13;100103.25;;;-1.31;97.75
16694;BME280;39538;52.196;9.892;2022-12-11T02:40:41;100091.88;;;-1.29;97.89
16694;BME280;39538;52.196;9.892;2022-12-11T02:43:12;100095.41;;;-1.30;97.88
16694;BME280;39538;52.196;9.892;2022-12-11T02:45:41;100097.16;;;-1.30;97.89
16694;BME280;39538;52.196;9.892;2022-12-11T02:48:10;100098.03;;;-1.31;98.02
16694;BME280;39538;52.196;9.892;2022-12-11T02:50:41;100093.66;;;-1.31;98.03
16694;BME280;39538;52.196;9.892;2022-12-11T02:53:10;100092.75;;;-1.28;98.44
16694;BME280;39538;52.196;9.892;2022-12-11T02:55:39;100092.69;;;-1.27;98.23
16694;BME280;39538;52.196;9.892;2022-12-11T02:58:13;100091.88;;;-1.29;98.27
16694;BME280;39538;52.196;9.892;2022-12-11T03:00:43;100090.09;;;-1.27;98.47
16694;BME280;39538;52.196;9.892;2022-12-11T03:03:10;100090.19;;;-1.30;98.31
16694;BME280;39538;52.196;9.892;2022-12-11T03:05:37;100091.25;;;-1.37;98.52
16694;BME280;39538;52.196;9.892;2022-12-11T03:08:04;100084.16;;;-1.32;98.41
16694;BME280;39538;52.196;9.892;2022-12-11T03:10:31;100089.47;;;-1.35;98.47
16694;BME280;39538;52.196;9.892;2022-12-11T03:12:58;100080.78;;;-1.35;98.28
16694;BME280;39538;52.196;9.892;2022-12-11T03:15:32;100079.06;;;-1.35;98.41
16694;BME280;39538;52.196;9.892;2022-12-11T03:18:05;100083.34;;;-1.34;98.46
16694;BME280;39538;52.196;9.892;2022-12-11T03:20:38;100079.91;;;-1.34;98.19
16694;BME280;39538;52.196;9.892;2022-12-11T03:23:17;100080.75;;;-1.34;98.18
16694;BME280;39538;52.196;9.892;2022-12-11T03:25:52;100086.94;;;-1.38;98.06
16694;BME280;39538;52.196;9.892;2022-12-11T03:28:23;100089.50;;;-1.36;98.28
16694;BME280;39538;52.196;9.892;2022-12-11T03:30:53;100092.25;;;-1.41;98.41
16694;BME280;39538;52.196;9.892;2022-12-11T03:33:22;100076.63;;;-1.41;98.39
16694;BME280;39538;52.196;9.892;2022-12-11T03:35:53;100078.34;;;-1.40;98.40
16694;BME280;39538;52.196;9.892;2022-12-11T03:38:23;100072.31;;;-1.42;98.52
16694;BME280;39538;52.196;9.892;2022-12-11T03:40:54;100066.19;;;-1.41;98.31
16694;BME280;39538;52.196;9.892;2022-12-11T03:43:21;100063.84;;;-1.50;98.21
16694;BME280;39538;52.196;9.892;2022-12-11T03:45:50;100063.94;;;-1.53;98.33
16694;BME280;39538;52.196;9.892;2022-12-11T03:48:20;100061.34;;;-1.53;98.34
16694;BME280;39538;52.196;9.892;2022-12-11T03:50:47;100073.41;;;-1.51;98.24
16694;BME280;39538;52.196;9.892;2022-12-11T03:53:15;100073.44;;;-1.52;98.49
16694;BME280;39538;52.196;9.892;2022-12-11T03:55:42;100077.03;;;-1.56;98.55
16694;BME280;39538;52.196;9.892;2022-12-11T03:58:10;100081.28;;;-1.52;98.78
16694;BME280;39538;52.196;9.892;2022-12-11T04:00:36;100080.44;;;-1.54;98.84
16694;BME280;39538;52.196;9.892;2022-12-11T04:03:03;100088.19;;;-1.51;99.10
16694;BME280;39538;52.196;9.892;2022-12-11T04:05:43;100078.66;;;-1.52;99.02
16694;BME280;39538;52.196;9.892;2022-12-11T04:08:10;100091.69;;;-1.52;98.92
16694;BME280;39538;52.196;9.892;2022-12-11T04:10:36;100088.25;;;-1.54;98.85
16694;BME280;39538;52.196;9.892;2022-12-11T04:13:03;100085.59;;;-1.51;98.94
16694;BME280;39538;52.196;9.892;2022-12-11T04:15:29;100091.69;;;-1.52;98.89
16694;BME280;39538;52.196;9.892;2022-12-11T04:17:55;100082.19;;;-1.53;98.78
16694;BME280;39538;52.196;9.892;2022-12-11T04:20:40;100076.13;;;-1.54;98.43
16694;BME280;39538;52.196;9.892;2022-12-11T04:23:24;100080.53;;;-1.56;98.25
16694;BME280;39538;52.196;9.892;2022-12-11T04:26:09;100078.97;;;-1.63;98.08
16694;BME280;39538;52.196;9.892;2022-12-11T04:28:37;100079.00;;;-1.64;98.15
16694;BME280;39538;52.196;9.892;2022-12-11T04:31:04;100072.00;;;-1.61;98.33
16694;BME280;39538;52.196;9.892;2022-12-11T04:33:30;100078.78;;;-1.57;98.46
16694;BME280;39538;52.196;9.892;2022-12-11T04:35:59;100075.34;;;-1.57;98.32
16694;BME280;39538;52.196;9.892;2022-12-11T04:38:26;100080.53;;;-1.57;98.16
16694;BME280;39538;52.196;9.892;2022-12-11T04:40:57;100071.91;;;-1.59;97.88
16694;BME280;39538;52.196;9.892;2022-12-11T04:43:24;100078.84;;;-1.58;97.98
16694;BME280;39538;52.196;9.892;2022-12-11T04:45:59;100080.91;;;-1.70;97.62
16694;BME280;39538;52.196;9.892;2022-12-11T04:48:26;100080.78;;;-1.65;97.64
16694;BME280;39538;52.196;9.892;2022-12-11T04:50:52;100074.72;;;-1.65;97.55
16694;BME280;39538;52.196;9.892;2022-12-11T04:53:21;100082.59;;;-1.68;97.59
16694;BME280;39538;52.196;9.892;2022-12-11T04:55:47;100079.91;;;-1.65;97.66
16694;BME280;39538;52.196;9.892;2022-12-11T04:58:14;100073.81;;;-1.64;97.48
16694;BME280;39538;52.196;9.892;2022-12-11T05:00:41;100071.16;;;-1.63;97.39
16694;BME280;39538;52.196;9.892;2022-12-11T05:03:07;100076.44;;;-1.66;97.56
16694;BME280;39538;52.196;9.892;2022-12-11T05:05:34;100080.72;;;-1.63;97.86
16694;BME280;39538;52.196;9.892;2022-12-11T05:08:01;100067.69;;;-1.63;97.94
16694;BME280;39538;52.196;9.892;2022-12-11T05:10:28;100073.72;;;-1.61;97.84
16694;BME280;39538;52.196;9.892;2022-12-11T05:12:55;100066.81;;;-1.62;97.76
16694;BME280;39538;52.196;9.892;2022-12-11T05:15:22;100066.84;;;-1.64;98.04
16694;BME280;39538;52.196;9.892;2022-12-11T05:17:48;100057.84;;;-1.83;97.87
16694;BME280;39538;52.196;9.892;2022-12-11T05:20:15;100062.84;;;-1.76;97.33
16694;BME280;39538;52.196;9.892;2022-12-11T05:22:41;100057.06;;;-1.87;97.64
16694;BME280;39538;52.196;9.892;2022-12-11T05:25:08;100054.41;;;-1.84;97.60
16694;BME280;39538;52.196;9.892;2022-12-11T05:27:36;100050.72;;;-1.77;97.78
16694;BME280;39538;52.196;9.892;2022-12-11T05:30:03;100048.97;;;-1.76;97.72
16694;BME280;39538;52.196;9.892;2022-12-11T05:32:30;100058.28;;;-1.67;97.89
16694;BME280;39538;52.196;9.892;2022-12-11T05:34:56;100054.78;;;-1.66;97.84
16694;BME280;39538;52.196;9.892;2022-12-11T05:37:23;100056.50;;;-1.65;97.76
16694;BME280;39538;52.196;9.892;2022-12-11T05:39:49;100055.59;;;-1.64;97.76
16694;BME280;39538;52.196;9.892;2022-12-11T05:42:16;100059.84;;;-1.62;98.03
16694;BME280;39538;52.196;9.892;2022-12-11T05:44:44;100063.38;;;-1.64;97.85
16694;BME280;39538;52.196;9.892;2022-12-11T05:47:10;100069.41;;;-1.62;97.52
16694;BME280;39538;52.196;9.892;2022-12-11T05:49:37;100068.69;;;-1.67;97.76
16694;BME280;39538;52.196;9.892;2022-12-11T05:52:04;100072.16;;;-1.67;97.55
16694;BME280;39538;52.196;9.892;2022-12-11T05:54:30;100075.50;;;-1.63;97.48
16694;BME280;39538;52.196;9.892;2022-12-11T05:56:57;100068.69;;;-1.67;97.34
16694;BME280;39538;52.196;9.892;2022-12-11T05:59:23;100063.50;;;-1.67;97.34
16694;BME280;39538;52.196;9.892;2022-12-11T06:01:51;100064.56;;;-1.75;96.91
16694;BME280;39538;52.196;9.892;2022-12-11T06:04:18;100066.38;;;-1.78;96.63
16694;BME280;39538;52.196;9.892;2022-12-11T06:06:44;100062.59;;;-1.99;96.39
16694;BME280;39538;52.196;9.892;2022-12-11T06:09:12;100057.53;;;-2.05;96.49
16694;BME280;39538;52.196;9.892;2022-12-11T06:11:39;100049.91;;;-2.12;96.35
16694;BME280;39538;52.196;9.892;2022-12-11T06:14:06;100054.41;;;-2.17;96.15
16694;BME280;39538;52.196;9.892;2022-12-11T06:16:34;100047.66;;;-2.25;96.11
16694;BME280;39538;52.196;9.892;2022-12-11T06:19:02;100040.94;;;-2.34;96.03
16694;BME280;39538;52.196;9.892;2022-12-11T06:21:31;100036.44;;;-2.27;96.26
16694;BME280;39538;52.196;9.892;2022-12-11T06:23:59;100038.34;;;-2.34;96.35
16694;BME280;39538;52.196;9.892;2022-12-11T06:26:27;100031.47;;;-2.35;96.61
16694;BME280;39538;52.196;9.892;2022-12-11T06:28:54;100034.78;;;-2.30;96.55
16694;BME280;39538;52.196;9.892;2022-12-11T06:31:20;100033.94;;;-2.30;96.50
16694;BME280;39538;52.196;9.892;2022-12-11T06:33:47;100033.72;;;-2.21;96.58
16694;BME280;39538;52.196;9.892;2022-12-11T06:36:17;100037.88;;;-2.16;96.46
16694;BME280;39538;52.196;9.892;2022-12-11T06:38:44;100037.16;;;-2.21;96.57
16694;BME280;39538;52.196;9.892;2022-12-11T06:41:11;100036.31;;;-2.21;96.55
16694;BME280;39538;52.196;9.892;2022-12-11T06:43:38;100034.50;;;-2.19;96.09
16694;BME280;39538;52.196;9.892;2022-12-11T06:46:07;100037.22;;;-2.24;95.85
16694;BME280;39538;52.196;9.892;2022-12-11T06:48:34;100032.34;;;-2.36;95.90
16694;BME280;39538;52.196;9.892;2022-12-11T06:51:04;100038.97;;;-2.24;95.42
16694;BME280;39538;52.196;9.892;2022-12-11T06:53:32;100034.59;;;-2.22;94.90
16694;BME280;39538;52.196;9.892;2022-12-11T06:56:01;100038.78;;;-2.17;95.05
16694;BME280;39538;52.196;9.892;2022-12-11T07:00:56;100050.97;;;-2.19;95.35
16694;BME280;39538;52.196;9.892;2022-12-11T07:03:22;100045.06;;;-2.25;95.27
16694;BME280;39538;52.196;9.892;2022-12-11T07:05:49;100050.88;;;-2.16;95.09
16694;BME280;39538;52.196;9.892;2022-12-11T07:08:15;100053.25;;;-2.06;95.40
16694;BME280;39538;52.196;9.892;2022-12-11T07:10:43;100063.56;;;-2.03;95.47
16694;BME280;39538;52.196;9.892;2022-12-11T07:13:10;100054.91;;;-2.04;95.41
16694;BME280;39538;52.196;9.892;2022-12-11T07:15:36;100062.75;;;-2.05;95.44
16694;BME280;39538;52.196;9.892;2022-12-11T07:18:03;100067.22;;;-2.10;95.12
16694;BME280;39538;52.196;9.892;2022-12-11T07:20:29;100057.59;;;-2.07;95.27
16694;BME280;39538;52.196;9.892;2022-12-11T07:22:56;100075.69;;;-2.02;95.45
16694;BME280;39538;52.196;9.892;2022-12-11T07:25:22;100067.22;;;-2.10;95.16
16694;BME280;39538;52.196;9.892;2022-12-11T07:27:50;100078.53;;;-2.12;95.22
16694;BME280;39538;52.196;9.892;2022-12-11T07:30:17;100067.94;;;-2.05;95.11
16694;BME280;39538;52.196;9.892;2022-12-11T07:32:44;100076.66;;;-2.06;95.40
16694;BME280;39538;52.196;9.892;2022-12-11T07:35:10;100071.31;;;-2.00;95.61
16694;BME280;39538;52.196;9.892;2022-12-11T07:37:39;100071.47;;;-2.06;95.72
16694;BME280;39538;52.196;9.892;2022-12-11T07:40:07;100078.59;;;-2.15;95.33
16694;BME280;39538;52.196;9.892;2022-12-11T07:42:34;100078.53;;;-2.12;95.36
16694;BME280;39538;52.196;9.892;2022-12-11T07:45:02;100084.44;;;-2.05;95.09
16694;BME280;39538;52.196;9.892;2022-12-11T07:47:29;100073.16;;;-2.05;95.24
16694;BME280;39538;52.196;9.892;2022-12-11T07:49:55;100071.44;;;-2.05;95.31
16694;BME280;39538;52.196;9.892;2022-12-11T07:52:22;100074.97;;;-2.07;95.19
16694;BME280;39538;52.196;9.892;2022-12-11T07:54:48;100080.16;;;-2.07;95.14
16694;BME280;39538;52.196;9.892;2022-12-11T07:57:15;100078.13;;;-1.96;95.20
16694;BME280;39538;52.196;9.892;2022-12-11T07:59:41;100078.94;;;-1.94;95.34
16694;BME280;39538;52.196;9.892;2022-12-11T08:02:10;100081.38;;;-1.88;95.26
16694;BME280;39538;52.196;9.892;2022-12-11T08:04:37;100077.97;;;-1.90;94.82
16694;BME280;39538;52.196;9.892;2022-12-11T08:07:03;100077.88;;;-1.87;94.81
16694;BME280;39538;52.196;9.892;2022-12-11T08:09:30;100083.16;;;-1.90;94.78
16694;BME280;39538;52.196;9.892;2022-12-11T08:11:56;100077.97;;;-1.90;94.87
16694;BME280;39538;52.196;9.892;2022-12-11T08:14:23;100077.88;;;-1.87;94.63
16694;BME280;39538;52.196;9.892;2022-12-11T08:16:49;100079.75;;;-1.92;94.47
16694;BME280;39538;52.196;9.892;2022-12-11T08:19:17;100079.03;;;-1.97;94.17
16694;BME280;39538;52.196;9.892;2022-12-11T08:21:44;100079.78;;;-1.94;94.07
16694;BME280;39538;52.196;9.892;2022-12-11T08:24:11;100078.09;;;-1.95;94.18
16694;BME280;39538;52.196;9.892;2022-12-11T08:26:38;100076.50;;;-2.00;94.15
16694;BME280;39538;52.196;9.892;2022-12-11T08:29:05;100078.53;;;-2.12;94.00
16694;BME280;39538;52.196;9.892;2022-12-11T08:31:32;100074.38;;;-2.19;93.38
16694;BME280;39538;52.196;9.892;2022-12-11T08:33:58;100073.72;;;-2.27;93.70
16694;BME280;39538;52.196;9.892;2022-12-11T08:36:26;100086.50;;;-2.19;93.66
16694;BME280;39538;52.196;9.892;2022-12-11T08:38:54;100087.53;;;-2.25;93.22
16694;BME280;39538;52.196;9.892;2022-12-11T08:41:22;100090.81;;;-2.17;93.45
16694;BME280;39538;52.196;9.892;2022-12-11T08:43:50;100086.47;;;-2.18;93.44
16694;BME280;39538;52.196;9.892;2022-12-11T08:46:19;100082.19;;;-2.19;93.41
16694;BME280;39538;52.196;9.892;2022-12-11T08:48:46;100085.44;;;-2.10;93.75
16694;BME280;39538;52.196;9.892;2022-12-11T08:51:14;100085.06;;;-1.97;93.86
16694;BME280;39538;52.196;9.892;2022-12-11T08:53:43;100086.84;;;-1.97;93.78
16694;BME280;39538;52.196;9.892;2022-12-11T08:56:11;100079.63;;;-1.87;94.00
16694;BME280;39538;52.196;9.892;2022-12-11T08:58:38;100087.44;;;-1.87;93.38
16694;BME280;39538;52.196;9.892;2022-12-11T09:01:06;100082.22;;;-1.87;93.74
16694;BME280;39538;52.196;9.892;2022-12-11T09:03:33;100081.25;;;-1.83;93.18
16694;BME280;39538;52.196;9.892;2022-12-11T09:06:03;100077.63;;;-1.78;93.45
16694;BME280;39538;52.196;9.892;2022-12-11T09:08:29;100077.75;;;-1.82;93.11
16694;BME280;39538;52.196;9.892;2022-12-11T09:11:01;100080.34;;;-1.82;92.50
16694;BME280;39538;52.196;9.892;2022-12-11T09:13:28;100074.63;;;-1.95;92.26
16694;BME280;39538;52.196;9.892;2022-12-11T09:15:54;100075.72;;;-2.04;92.14
16694;BME280;39538;52.196;9.892;2022-12-11T09:18:21;100080.16;;;-2.07;92.07
16694;BME280;39538;52.196;9.892;2022-12-11T09:20:47;100077.41;;;-2.03;92.60
16694;BME280;39538;52.196;9.892;2022-12-11T09:23:14;100078.28;;;-2.02;92.46
16694;BME280;39538;52.196;9.892;2022-12-11T09:25:40;100072.97;;;-1.98;92.63
16694;BME280;39538;52.196;9.892;2022-12-11T09:28:08;100073.50;;;-1.85;92.35
16694;BME280;39538;52.196;9.892;2022-12-11T09:30:35;100082.69;;;-1.72;92.43
16694;BME280;39538;52.196;9.892;2022-12-11T09:33:01;100071.06;;;-1.91;91.87
16694;BME280;39538;52.196;9.892;2022-12-11T09:35:28;100066.00;;;-1.97;91.60
16694;BME280;39538;52.196;9.892;2022-12-11T09:37:54;100067.91;;;-2.04;91.74
16694;BME280;39538;52.196;9.892;2022-12-11T09:40:21;100065.06;;;-1.93;91.69
16694;BME280;39538;52.196;9.892;2022-12-11T09:42:52;100063.19;;;-1.89;92.19
16694;BME280;39538;52.196;9.892;2022-12-11T09:45:21;100068.94;;;-1.77;92.39
16694;BME280;39538;52.196;9.892;2022-12-11T09:47:49;100064.72;;;-1.81;92.26
16694;BME280;39538;52.196;9.892;2022-12-11T09:50:22;100062.69;;;-2.02;92.25
16694;BME280;39538;52.196;9.892;2022-12-11T09:52:58;100062.72;;;-2.04;92.22
16694;BME280;39538;52.196;9.892;2022-12-11T09:55:32;100068.66;;;-1.99;92.36
16694;BME280;39538;52.196;9.892;2022-12-11T09:58:05;100062.72;;;-2.04;92.39
16694;BME280;39538;52.196;9.892;2022-12-11T10:00:38;100058.25;;;-1.99;92.51
16694;BME280;39538;52.196;9.892;2022-12-11T10:03:22;100060.09;;;-2.02;92.31
16694;BME280;39538;52.196;9.892;2022-12-11T10:05:58;100058.06;;;-1.91;92.28
16694;BME280;39538;52.196;9.892;2022-12-11T10:08:37;100045.81;;;-1.87;91.94
16694;BME280;39538;52.196;9.892;2022-12-11T10:11:30;100035.41;;;-1.87;91.72
16694;BME280;39538;52.196;9.892;2022-12-11T10:14:06;100040.13;;;-2.02;91.19
16694;BME280;39538;52.196;9.892;2022-12-11T10:16:40;100044.66;;;-2.10;91.53
16694;BME280;39538;52.196;9.892;2022-12-11T10:19:13;100039.34;;;-2.05;91.75
16694;BME280;39538;52.196;9.892;2022-12-11T10:21:42;100046.88;;;-1.95;92.04
16694;BME280;39538;52.196;9.892;2022-12-11T10:24:15;100045.84;;;-1.89;92.17
16694;BME280;39538;52.196;9.892;2022-12-11T10:26:43;100044.97;;;-1.88;91.80
16694;BME280;39538;52.196;9.892;2022-12-11T10:29:14;100042.22;;;-1.83;91.54
16694;BME280;39538;52.196;9.892;2022-12-11T10:31:46;100039.63;;;-1.83;91.19
16694;BME280;39538;52.196;9.892;2022-12-11T10:34:21;100034.19;;;-1.76;91.40
16694;BME280;39538;52.196;9.892;2022-12-11T10:36:49;100034.19;;;-1.76;91.23
16694;BME280;39538;52.196;9.892;2022-12-11T10:39:18;100034.63;;;-1.60;91.07
16694;BME280;39538;52.196;9.892;2022-12-11T10:41:46;100030.72;;;-1.45;90.78
16694;BME280;39538;52.196;9.892;2022-12-11T10:44:15;100024.81;;;-1.50;90.46
16694;BME280;39538;52.196;9.892;2022-12-11T10:46:44;100019.59;;;-1.50;90.36
16694;BME280;39538;52.196;9.892;2022-12-11T10:49:21;100023.56;;;-1.37;90.53
16694;BME280;39538;52.196;9.892;2022-12-11T10:51:49;100024.09;;;-1.25;90.15
16694;BME280;39538;52.196;9.892;2022-12-11T10:54:28;100033.00;;;-1.33;89.59
16694;BME280;39538;52.196;9.892;2022-12-11T10:56:55;100027.41;;;-1.20;89.49
16694;BME280;39538;52.196;9.892;2022-12-11T10:59:29;100026.28;;;-1.12;89.22
16694;BME280;39538;52.196;9.892;2022-12-11T11:01:59;100020.72;;;-1.01;88.81
16694;BME280;39538;52.196;9.892;2022-12-11T11:04:30;100022.06;;;-0.88;88.40
16694;BME280;39538;52.196;9.892;2022-12-11T11:07:01;100020.28;;;-1.15;88.06
16694;BME280;39538;52.196;9.892;2022-12-11T11:09:30;100020.25;;;-1.14;88.18
16694;BME280;39538;52.196;9.892;2022-12-11T11:11:57;100016.22;;;-0.96;88.55
16694;BME280;39538;52.196;9.892;2022-12-11T11:14:24;100017.72;;;-0.89;87.96
16694;BME280;39538;52.196;9.892;2022-12-11T11:16:53;100020.84;;;-0.77;87.76
16694;BME280;39538;52.196;9.892;2022-12-11T11:19:24;100013.44;;;-0.63;86.42
16694;BME280;39538;52.196;9.892;2022-12-11T11:21:54;100014.19;;;-0.59;85.46
16694;BME280;39538;52.196;9.892;2022-12-11T11:24:25;100018.44;;;-0.57;84.64
16694;BME280;39538;52.196;9.892;2022-12-11T11:26:53;100007.72;;;-0.48;84.13
16694;BME280;39538;52.196;9.892;2022-12-11T11:29:25;100007.28;;;-0.60;83.56
16694;BME280;39538;52.196;9.892;2022-12-11T11:31:53;100007.06;;;-0.54;83.22
16694;BME280;39538;52.196;9.892;2022-12-11T11:34:20;100001.38;;;-0.40;83.07
16694;BME280;39538;52.196;9.892;2022-12-11T11:36:56;100002.25;;;-0.15;83.49
16694;BME280;39538;52.196;9.892;2022-12-11T11:39:28;99999.13;;;0.01;83.46
16694;BME280;39538;52.196;9.892;2022-12-11T11:42:01;100000.88;;;0.00;82.82
16694;BME280;39538;52.196;9.892;2022-12-11T11:44:34;100009.09;;;0.38;81.75
16694;BME280;39538;52.196;9.892;2022-12-11T11:47:04;100020.84;;;1.82;79.20
16694;BME280;39538;52.196;9.892;2022-12-11T11:49:45;100013.22;;;1.96;75.68
16694;BME280;39538;52.196;9.892;2022-12-11T11:52:20;100009.19;;;1.89;74.24
16694;BME280;39538;52.196;9.892;2022-12-11T11:54:54;100007.88;;;2.58;74.40
16694;BME280;39538;52.196;9.892;2022-12-11T11:57:28;100008.59;;;4.38;71.18
16694;BME280;39538;52.196;9.892;2022-12-11T12:00:02;100005.38;;;5.89;64.69
16694;BME280;39538;52.196;9.892;2022-12-11T12:02:34;100003.13;;;6.42;59.87
16694;BME280;39538;52.196;9.892;2022-12-11T12:05:01;99999.84;;;6.94;56.95
16694;BME280;39538;52.196;9.892;2022-12-11T12:07:35;100004.13;;;7.64;55.54
16694;BME280;39538;52.196;9.892;2022-12-11T12:10:09;100007.97;;;8.11;53.22
16694;BME280;39538;52.196;9.892;2022-12-11T12:12:49;100009.25;;;8.31;52.14
16694;BME280;39538;52.196;9.892;2022-12-11T12:15:29;100006.47;;;8.83;51.28
16694;BME280;39538;52.196;9.892;2022-12-11T12:18:10;99997.56;;;9.21;50.81
16694;BME280;39538;52.196;9.892;2022-12-11T12:20:45;99997.44;;;9.47;49.39
16694;BME280;39538;52.196;9.892;2022-12-11T12:23:27;99998.97;;;9.74;48.76
16694;BME280;39538;52.196;9.892;2022-12-11T12:26:05;99995.88;;;9.80;47.49
16694;BME280;39538;52.196;9.892;2022-12-11T12:28:39;99987.69;;;9.23;47.42
16694;BME280;39538;52.196;9.892;2022-12-11T12:31:25;99998.25;;;8.24;48.56
16694;BME280;39538;52.196;9.892;2022-12-11T12:34:02;99989.31;;;7.61;49.88
16694;BME280;39538;52.196;9.892;2022-12-11T12:36:37;99987.41;;;6.96;50.89
16694;BME280;39538;52.196;9.892;2022-12-11T12:39:17;99993.75;;;6.79;51.75
16694;BME280;39538;52.196;9.892;2022-12-11T12:41:51;99991.31;;;6.76;52.11
16694;BME280;39538;52.196;9.892;2022-12-11T12:44:21;99992.38;;;6.59;52.53
16694;BME280;39538;52.196;9.892;2022-12-11T12:46:54;99987.13;;;6.16;52.70
16694;BME280;39538;52.196;9.892;2022-12-11T12:49:29;99991.81;;;5.66;53.42
16694;BME280;39538;52.196;9.892;2022-12-11T12:51:59;99981.88;;;5.10;54.67
16694;BME280;39538;52.196;9.892;2022-12-11T12:54:29;99987.41;;;4.57;55.76
16694;BME280;39538;52.196;9.892;2022-12-11T12:56:57;99980.78;;;4.01;57.19
16694;BME280;39538;52.196;9.892;2022-12-11T12:59:26;99977.53;;;3.61;58.27
16694;BME280;39538;52.196;9.892;2022-12-11T13:01:55;99981.25;;;3.22;59.26
16694;BME280;39538;52.196;9.892;2022-12-11T13:04:38;99983.69;;;2.89;60.85
16694;BME280;39538;52.196;9.892;2022-12-11T13:07:17;99987.47;;;2.64;62.47